createdAt,value
2023-04-17T00:01:51.315Z,92.00
2023-04-17T00:04:22.280Z,92.00
2023-04-17T00:06:53.852Z,92.00
2023-04-17T00:09:22.363Z,92.00
2023-04-17T00:11:50.774Z,92.10
2023-04-17T00:14:19.141Z,92.00
2023-04-17T00:16:49.070Z,92.00
2023-04-17T00:19:17.486Z,92.00
2023-04-17T00:21:45.933Z,92.00
2023-04-17T00:24:14.441Z,92.00
2023-04-17T00:26:42.757Z,92.00
2023-04-17T00:29:11.347Z,92.00
2023-04-17T00:31:40.073Z,92.00
2023-04-17T00:34:09.859Z,92.00
2023-04-17T00:36:38.231Z,91.90
2023-04-17T00:39:06.736Z,91.90
2023-04-17T00:41:35.052Z,92.00
2023-04-17T00:44:03.597Z,92.00
2023-04-17T00:46:32.427Z,92.00
2023-04-17T00:49:02.069Z,91.90
2023-04-17T00:51:32.669Z,91.90
2023-04-17T00:54:02.187Z,92.00
2023-04-17T00:56:31.548Z,91.90
2023-04-17T00:59:02.674Z,91.90
2023-04-17T01:01:31.225Z,91.90
2023-04-17T01:04:01.887Z,92.00
2023-04-17T01:06:32.379Z,91.90
2023-04-17T01:09:00.919Z,92.00
2023-04-17T01:11:29.472Z,92.00
2023-04-17T01:13:57.890Z,92.00
2023-04-17T01:16:26.387Z,92.00
2023-04-17T01:18:54.857Z,92.00
2023-04-17T01:21:23.126Z,92.00
2023-04-17T01:23:53.826Z,91.90
2023-04-17T01:26:28.748Z,92.00
2023-04-17T01:28:59.682Z,92.00
2023-04-17T01:31:29.419Z,91.90
2023-04-17T01:33:58.079Z,92.00
2023-04-17T01:36:27.678Z,92.00
2023-04-17T01:38:56.172Z,92.00
2023-04-17T01:41:25.313Z,92.00
2023-04-17T01:43:55.157Z,92.00
2023-04-17T01:46:23.819Z,92.00
2023-04-17T01:48:53.114Z,92.00
2023-04-17T01:51:21.903Z,91.90
2023-04-17T01:53:50.708Z,91.90
2023-04-17T01:56:19.085Z,92.00
2023-04-17T01:58:47.667Z,92.00
2023-04-17T02:01:17.580Z,91.90
2023-04-17T02:03:46.299Z,92.00
2023-04-17T02:06:14.827Z,92.00
2023-04-17T02:08:45.964Z,92.00
2023-04-17T02:11:15.383Z,92.00
2023-04-17T02:13:43.804Z,92.00
2023-04-17T02:16:12.700Z,92.00
2023-04-17T02:18:44.839Z,91.90
2023-04-17T02:21:13.227Z,92.00
2023-04-17T02:23:41.650Z,91.90
2023-04-17T02:26:13.047Z,92.00
2023-04-17T02:28:41.389Z,91.90
2023-04-17T02:31:10.417Z,92.00
2023-04-17T02:33:39.342Z,92.00
2023-04-17T02:36:10.473Z,92.00
2023-04-17T02:38:42.202Z,92.00
2023-04-17T02:41:10.723Z,92.00
2023-04-17T02:43:40.959Z,92.00
2023-04-17T02:46:11.385Z,92.00
2023-04-17T02:48:39.986Z,92.50
2023-04-17T02:51:09.746Z,92.00
2023-04-17T02:53:38.652Z,92.00
2023-04-17T02:56:07.367Z,92.00
2023-04-17T02:58:36.929Z,92.00
2023-04-17T03:01:07.361Z,92.10
2023-04-17T03:03:43.126Z,92.10
2023-04-17T03:06:15.880Z,92.10
2023-04-17T03:08:44.151Z,92.10
2023-04-17T03:11:12.686Z,92.10
2023-04-17T03:13:41.259Z,92.10
2023-04-17T03:16:09.684Z,92.10
2023-04-17T03:18:41.861Z,92.10
2023-04-17T03:21:10.567Z,92.10
2023-04-17T03:23:41.512Z,92.10
2023-04-17T03:26:10.545Z,92.10
2023-04-17T03:28:39.648Z,92.10
2023-04-17T03:31:08.081Z,92.10
2023-04-17T03:33:37.916Z,92.10
2023-04-17T03:36:07.189Z,92.10
2023-04-17T03:38:37.796Z,92.10
2023-04-17T03:41:10.219Z,92.10
2023-04-17T03:43:39.512Z,92.20
2023-04-17T03:46:10.522Z,92.20
2023-04-17T03:48:40.081Z,92.20
2023-04-17T03:51:08.742Z,92.10
2023-04-17T03:53:38.938Z,92.20
2023-04-17T03:56:12.224Z,92.10
2023-04-17T03:58:43.704Z,92.10
2023-04-17T04:01:15.014Z,92.20
2023-04-17T04:04:00.534Z,92.10
2023-04-17T04:06:30.119Z,92.20
2023-04-17T04:08:59.450Z,92.10
2023-04-17T04:11:29.107Z,92.10
2023-04-17T04:13:57.464Z,92.10
2023-04-17T04:16:26.100Z,92.10
2023-04-17T04:19:01.706Z,92.10
2023-04-17T04:21:30.456Z,92.10
2023-04-17T04:23:59.313Z,92.10
2023-04-17T04:26:29.264Z,92.10
2023-04-17T04:29:00.194Z,92.10
2023-04-17T04:31:35.754Z,92.10
2023-04-17T04:34:06.052Z,92.10
2023-04-17T04:36:36.276Z,92.10
2023-04-17T04:39:21.881Z,92.10
2023-04-17T04:41:53.046Z,92.00
2023-04-17T04:44:24.914Z,92.50
2023-04-17T04:46:57.506Z,92.00
2023-04-17T04:49:26.867Z,92.00
2023-04-17T04:51:55.426Z,92.00
2023-04-17T04:54:30.308Z,92.00
2023-04-17T04:57:03.237Z,92.00
2023-04-17T04:59:31.856Z,91.90
2023-04-17T05:02:18.578Z,92.00
2023-04-17T05:04:47.027Z,92.00
2023-04-17T05:07:16.036Z,92.00
2023-04-17T05:09:47.102Z,92.00
2023-04-17T05:12:18.925Z,92.00
2023-04-17T05:14:47.948Z,92.00
2023-04-17T05:17:17.962Z,91.90
2023-04-17T05:19:46.947Z,91.90
2023-04-17T05:22:16.110Z,92.00
2023-04-17T05:25:00.124Z,91.90
2023-04-17T05:27:30.041Z,92.00
2023-04-17T05:29:58.573Z,91.90
2023-04-17T05:32:27.785Z,91.90
2023-04-17T05:35:00.513Z,92.00
2023-04-17T05:37:30.064Z,91.90
2023-04-17T05:40:00.633Z,91.90
2023-04-17T05:42:31.870Z,91.90
2023-04-17T05:45:00.758Z,91.90
2023-04-17T05:47:29.242Z,91.90
2023-04-17T05:49:58.921Z,91.90
2023-04-17T05:52:30.338Z,91.90
2023-04-17T05:54:59.363Z,91.90
2023-04-17T05:57:31.566Z,91.90
2023-04-17T06:00:01.797Z,91.90
2023-04-17T06:02:31.191Z,91.90
2023-04-17T06:05:00.222Z,91.90
2023-04-17T06:07:28.686Z,91.90
2023-04-17T06:09:58.093Z,91.90
2023-04-17T06:12:26.647Z,91.90
2023-04-17T06:14:57.499Z,91.90
2023-04-17T06:17:25.978Z,91.90
2023-04-17T06:19:56.398Z,92.00
2023-04-17T06:22:25.002Z,91.90
2023-04-17T06:24:56.712Z,92.00
2023-04-17T06:27:25.313Z,91.90
2023-04-17T06:29:53.892Z,92.00
2023-04-17T06:32:23.996Z,92.00
2023-04-17T06:34:58.543Z,92.00
2023-04-17T06:37:41.696Z,92.00
2023-04-17T06:40:12.328Z,92.00
2023-04-17T06:42:42.036Z,92.50
2023-04-17T06:45:14.972Z,92.00
2023-04-17T06:47:47.088Z,92.00
2023-04-17T06:50:18.960Z,92.50
2023-04-17T06:52:47.410Z,92.10
2023-04-17T06:55:16.014Z,92.00
2023-04-17T06:57:44.353Z,92.10
2023-04-17T07:00:14.108Z,92.00
2023-04-17T07:02:42.590Z,92.10
2023-04-17T07:05:13.543Z,92.00
2023-04-17T07:07:42.088Z,92.00
2023-04-17T07:10:10.750Z,92.00
2023-04-17T07:12:39.067Z,92.00
2023-04-17T07:15:08.262Z,92.00
2023-04-17T07:17:36.850Z,92.00
2023-04-17T07:20:07.202Z,92.10
2023-04-17T07:22:37.015Z,92.10
2023-04-17T07:25:06.349Z,92.10
2023-04-17T07:27:34.786Z,92.10
2023-04-17T07:30:03.252Z,92.10
2023-04-17T07:32:31.554Z,92.10
2023-04-17T07:34:59.900Z,92.10
2023-04-17T07:37:28.370Z,92.10
2023-04-17T07:39:58.218Z,92.00
2023-04-17T07:42:26.523Z,92.00
2023-04-17T07:44:55.010Z,92.00
2023-04-17T07:47:24.050Z,92.00
2023-04-17T07:49:52.692Z,92.00
2023-04-17T07:52:21.046Z,92.00
2023-04-17T07:54:49.477Z,92.00
2023-04-17T07:57:19.328Z,92.50
2023-04-17T07:59:48.145Z,92.50
2023-04-17T08:02:16.858Z,92.40
2023-04-17T08:04:45.765Z,92.40
2023-04-17T08:07:14.538Z,92.60
2023-04-17T08:09:43.985Z,92.50
2023-04-17T08:12:12.984Z,92.60
2023-04-17T08:14:43.776Z,92.40
2023-04-17T08:17:12.432Z,92.40
2023-04-17T08:19:40.932Z,92.30
2023-04-17T08:22:09.489Z,92.30
2023-04-17T08:24:37.895Z,92.60
2023-04-17T08:27:07.923Z,92.30
2023-04-17T08:29:36.457Z,92.80
2023-04-17T08:32:14.590Z,92.50
2023-04-17T08:34:45.296Z,92.30
2023-04-17T08:37:13.824Z,92.40
2023-04-17T08:39:42.234Z,92.20
2023-04-17T08:42:16.764Z,92.20
2023-04-17T08:44:46.755Z,92.30
2023-04-17T08:47:20.200Z,92.20
2023-04-17T08:49:50.618Z,92.10
2023-04-17T08:52:19.108Z,92.10
2023-04-17T08:54:51.019Z,92.20
2023-04-17T08:57:19.702Z,92.10
2023-04-17T08:59:47.995Z,92.10
2023-04-17T09:02:18.110Z,92.10
2023-04-17T09:04:47.303Z,92.10
2023-04-17T09:07:16.817Z,92.20
2023-04-17T09:09:49.777Z,92.10
2023-04-17T09:12:18.697Z,92.10
2023-04-17T09:14:47.417Z,92.10
2023-04-17T09:17:18.922Z,92.10
2023-04-17T09:20:08.901Z,92.10
2023-04-17T09:22:40.171Z,92.00
2023-04-17T09:25:18.180Z,92.00
2023-04-17T09:27:46.752Z,92.60
2023-04-17T09:30:15.485Z,92.10
2023-04-17T09:32:45.396Z,92.10
2023-04-17T09:35:25.623Z,92.10
2023-04-17T09:37:55.198Z,92.10
2023-04-17T09:40:25.171Z,92.50
2023-04-17T09:42:58.867Z,92.50
2023-04-17T09:45:33.115Z,93.20
2023-04-17T09:48:03.686Z,92.30
2023-04-17T09:50:34.399Z,92.30
2023-04-17T09:53:05.331Z,92.20
2023-04-17T09:55:36.439Z,92.30
2023-04-17T09:58:06.509Z,92.70
2023-04-17T10:00:36.551Z,92.60
2023-04-17T10:03:08.333Z,92.50
2023-04-17T10:05:37.222Z,92.40
2023-04-17T10:08:06.802Z,92.30
2023-04-17T10:10:36.474Z,92.40
2023-04-17T10:13:09.289Z,92.50
2023-04-17T10:15:39.967Z,92.60
2023-04-17T10:18:24.487Z,92.40
2023-04-17T10:20:55.447Z,92.40
2023-04-17T10:23:34.094Z,92.30
2023-04-17T10:26:35.776Z,92.30
2023-04-17T10:29:04.263Z,92.30
2023-04-17T10:32:10.262Z,92.30
2023-04-17T10:34:42.553Z,92.30
2023-04-17T10:37:15.639Z,92.40
2023-04-17T10:39:57.866Z,92.40
2023-04-17T10:42:27.957Z,92.30
2023-04-17T10:45:01.145Z,92.50
2023-04-17T10:47:34.495Z,92.50
2023-04-17T10:50:08.867Z,92.40
2023-04-17T10:52:40.018Z,92.30
2023-04-17T10:55:10.413Z,92.40
2023-04-17T10:58:00.752Z,92.40
2023-04-17T11:00:32.860Z,92.30
2023-04-17T11:03:03.165Z,92.40
2023-04-17T11:05:33.244Z,92.30
2023-04-17T11:08:01.801Z,92.30
2023-04-17T11:10:30.296Z,92.30
2023-04-17T11:12:58.708Z,92.40
2023-04-17T11:15:29.026Z,92.40
2023-04-17T11:17:58.819Z,92.30
2023-04-17T11:20:29.855Z,92.30
2023-04-17T11:23:02.333Z,92.30
2023-04-17T11:25:34.187Z,92.30
2023-04-17T11:28:04.577Z,92.30
2023-04-17T11:30:34.704Z,92.30
2023-04-17T11:33:05.318Z,92.30
2023-04-17T11:35:35.179Z,92.30
2023-04-17T11:38:13.808Z,92.30
2023-04-17T11:40:46.524Z,92.30
2023-04-17T11:43:15.024Z,92.30
2023-04-17T11:45:44.936Z,92.30
2023-04-17T11:48:14.594Z,92.30
2023-04-17T11:50:44.682Z,92.20
2023-04-17T11:53:18.694Z,92.30
2023-04-17T11:55:48.637Z,92.30
2023-04-17T11:58:17.231Z,92.40
2023-04-17T12:00:45.985Z,92.30
2023-04-17T12:03:35.775Z,92.30
2023-04-17T12:06:06.591Z,92.30
2023-04-17T12:08:50.457Z,92.30
2023-04-17T12:11:25.746Z,92.30
2023-04-17T12:13:55.363Z,92.30
2023-04-17T12:16:25.853Z,92.30
2023-04-17T12:18:54.794Z,92.30
2023-04-17T12:21:24.060Z,92.30
2023-04-17T12:23:54.459Z,92.30
2023-04-17T12:26:24.926Z,92.30
2023-04-17T12:28:53.387Z,92.30
2023-04-17T12:31:21.894Z,92.30
2023-04-17T12:33:51.504Z,92.30
2023-04-17T12:36:20.223Z,92.30
2023-04-17T12:38:48.883Z,92.40
2023-04-17T12:41:18.742Z,92.30
2023-04-17T12:43:47.227Z,92.20
2023-04-17T12:46:15.967Z,92.20
2023-04-17T12:48:44.463Z,92.20
2023-04-17T12:51:12.989Z,92.20
2023-04-17T12:53:41.419Z,92.10
2023-04-17T12:56:09.930Z,92.10
2023-04-17T12:58:39.821Z,92.10
2023-04-17T13:01:08.365Z,92.10
2023-04-17T13:03:37.254Z,92.10
2023-04-17T13:06:06.017Z,92.20
2023-04-17T13:08:34.362Z,92.10
2023-04-17T13:11:03.859Z,92.10
2023-04-17T13:13:32.360Z,92.10
2023-04-17T13:16:02.668Z,92.00
2023-04-17T13:18:31.084Z,91.60
2023-04-17T13:20:59.645Z,91.60
2023-04-17T13:23:28.294Z,91.80
2023-04-17T13:25:56.888Z,91.70
2023-04-17T13:28:25.176Z,92.30
2023-04-17T13:30:54.013Z,91.80
2023-04-17T13:33:23.846Z,91.80
2023-04-17T13:35:53.412Z,91.80
2023-04-17T13:38:23.243Z,91.80
2023-04-17T13:40:51.782Z,91.80
2023-04-17T13:43:20.298Z,91.80
2023-04-17T13:45:49.744Z,91.80
2023-04-17T13:48:18.276Z,91.90
2023-04-17T13:50:48.079Z,91.70
2023-04-17T13:53:16.820Z,91.80
2023-04-17T13:55:45.193Z,91.40
2023-04-17T13:58:13.831Z,91.30
2023-04-17T14:00:42.475Z,91.60
2023-04-17T14:03:11.202Z,91.70
2023-04-17T14:05:40.199Z,91.70
2023-04-17T14:08:10.228Z,91.60
2023-04-17T14:10:38.798Z,91.60
2023-04-17T14:13:07.546Z,91.60
2023-04-17T14:15:36.250Z,91.70
2023-04-17T14:18:05.094Z,91.70
2023-04-17T14:20:33.811Z,91.70
2023-04-17T14:23:02.400Z,91.60
2023-04-17T14:25:32.323Z,91.80
2023-04-17T14:28:00.838Z,91.80
2023-04-17T14:30:29.701Z,91.80
2023-04-17T14:32:58.701Z,91.80
2023-04-17T14:35:27.224Z,91.80
2023-04-17T14:37:55.781Z,91.80
2023-04-17T14:40:24.209Z,91.70
2023-04-17T14:42:54.917Z,91.70
2023-04-17T14:45:23.796Z,91.80
2023-04-17T14:47:52.452Z,91.80
2023-04-17T14:50:21.214Z,91.90
2023-04-17T14:52:49.583Z,91.90
2023-04-17T14:55:18.373Z,91.90
2023-04-17T14:57:46.900Z,91.80
2023-04-17T15:00:18.462Z,91.80
2023-04-17T15:02:47.136Z,91.70
2023-04-17T15:05:19.058Z,91.70
2023-04-17T15:07:47.720Z,91.70
2023-04-17T15:10:16.691Z,91.70
2023-04-17T15:12:45.179Z,91.60
2023-04-17T15:15:13.888Z,91.60
2023-04-17T15:17:44.028Z,91.40
2023-04-17T15:20:12.953Z,91.40
2023-04-17T15:22:41.363Z,91.50
2023-04-17T15:25:10.163Z,91.30
2023-04-17T15:27:38.569Z,91.30
2023-04-17T15:30:09.020Z,91.30
2023-04-17T15:32:37.614Z,91.40
2023-04-17T15:35:08.407Z,91.40
2023-04-17T15:37:38.064Z,91.20
2023-04-17T15:40:08.425Z,91.20
2023-04-17T15:42:37.829Z,91.20
2023-04-17T15:45:07.481Z,91.20
2023-04-17T15:47:36.256Z,91.30
2023-04-17T15:50:04.971Z,91.20
2023-04-17T15:52:34.751Z,90.90
2023-04-17T15:55:04.450Z,91.10
2023-04-17T15:57:32.799Z,91.00
2023-04-17T16:00:01.433Z,91.00
2023-04-17T16:02:29.896Z,90.90
2023-04-17T16:04:58.411Z,91.10
2023-04-17T16:07:26.798Z,90.90
2023-04-17T16:09:56.822Z,91.00
2023-04-17T16:12:25.324Z,91.00
2023-04-17T16:14:53.783Z,90.80
2023-04-17T16:17:22.240Z,90.70
2023-04-17T16:19:50.971Z,90.70
2023-04-17T16:22:19.660Z,90.70
2023-04-17T16:24:47.972Z,90.70
2023-04-17T16:27:17.782Z,90.60
2023-04-17T16:29:46.456Z,90.70
2023-04-17T16:32:15.376Z,90.40
2023-04-17T16:34:44.051Z,90.60
2023-04-17T16:37:12.541Z,90.60
2023-04-17T16:39:41.033Z,90.70
2023-04-17T16:42:09.422Z,90.60
2023-04-17T16:44:39.155Z,90.70
2023-04-17T16:47:13.169Z,90.70
2023-04-17T16:49:42.745Z,90.60
2023-04-17T16:52:11.400Z,90.60
2023-04-17T16:54:39.803Z,90.50
2023-04-17T16:57:08.334Z,90.70
2023-04-17T16:59:38.117Z,90.60
2023-04-17T17:02:06.463Z,90.50
2023-04-17T17:04:35.018Z,90.50
2023-04-17T17:07:03.537Z,90.60
2023-04-17T17:09:31.955Z,90.00
2023-04-17T17:12:00.733Z,90.30
2023-04-17T17:14:29.200Z,90.00
2023-04-17T17:16:59.242Z,90.00
2023-04-17T17:19:27.770Z,90.00
2023-04-17T17:21:56.224Z,90.10
2023-04-17T17:24:24.659Z,90.30
2023-04-17T17:26:53.236Z,90.10
2023-04-17T17:29:21.721Z,89.20
2023-04-17T17:31:50.237Z,89.20
2023-04-17T17:34:26.676Z,89.50
2023-04-17T17:36:55.597Z,89.40
2023-04-17T17:39:24.032Z,89.60
2023-04-17T17:41:52.658Z,89.70
2023-04-17T17:44:21.052Z,89.50
2023-04-17T17:46:49.359Z,89.60
2023-04-17T17:49:19.206Z,89.20
2023-04-17T17:51:47.504Z,89.00
2023-04-17T17:54:15.926Z,88.60
2023-04-17T17:56:44.366Z,88.70
2023-04-17T17:59:12.869Z,88.40
2023-04-17T18:01:41.453Z,88.50
2023-04-17T18:04:10.122Z,89.50
2023-04-17T18:06:41.050Z,89.60
2023-04-17T18:09:09.563Z,89.70
2023-04-17T18:11:38.897Z,89.90
2023-04-17T18:14:08.601Z,90.00
2023-04-17T18:16:37.625Z,89.90
2023-04-17T18:19:07.151Z,90.00
2023-04-17T18:21:35.560Z,90.10
2023-04-17T18:24:05.854Z,90.10
2023-04-17T18:26:35.288Z,90.20
2023-04-17T18:29:03.745Z,90.30
2023-04-17T18:31:32.112Z,90.30
2023-04-17T18:34:02.501Z,90.20
2023-04-17T18:36:30.902Z,90.20
2023-04-17T18:38:59.304Z,90.20
2023-04-17T18:41:29.120Z,89.00
2023-04-17T18:43:57.472Z,89.40
2023-04-17T18:46:27.209Z,88.50
2023-04-17T18:48:55.596Z,89.80
2023-04-17T18:51:24.162Z,90.10
2023-04-17T18:53:52.552Z,89.70
2023-04-17T18:56:20.978Z,90.10
2023-04-17T18:58:51.163Z,90.20
2023-04-17T19:01:19.748Z,90.20
2023-04-17T19:03:48.176Z,90.20
2023-04-17T19:06:16.478Z,90.20
2023-04-17T19:08:44.938Z,90.30
2023-04-17T19:11:13.624Z,90.00
2023-04-17T19:13:42.406Z,89.60
2023-04-17T19:16:12.616Z,90.00
2023-04-17T19:18:41.077Z,90.10
2023-04-17T19:21:09.586Z,90.00
2023-04-17T19:23:38.248Z,90.20
2023-04-17T19:26:06.665Z,90.30
2023-04-17T19:28:35.007Z,90.40
2023-04-17T19:31:03.761Z,90.40
2023-04-17T19:33:33.768Z,90.50
2023-04-17T19:36:03.077Z,90.60
2023-04-17T19:38:31.492Z,90.50
2023-04-17T19:41:14.498Z,90.60
2023-04-17T19:43:42.931Z,90.60
2023-04-17T19:46:11.538Z,90.60
2023-04-17T19:48:43.487Z,90.40
2023-04-17T19:51:12.722Z,90.40
2023-04-17T19:53:42.114Z,90.60
2023-04-17T19:56:11.048Z,90.40
2023-04-17T19:58:39.858Z,90.40
2023-04-17T20:01:08.674Z,90.40
2023-04-17T20:03:38.439Z,90.60
2023-04-17T20:06:08.915Z,90.60
2023-04-17T20:08:37.274Z,90.60
2023-04-17T20:11:06.397Z,90.60
2023-04-17T20:13:34.859Z,90.60
2023-04-17T20:16:03.209Z,90.60
2023-04-17T20:18:31.724Z,90.60
2023-04-17T20:21:01.341Z,90.60
2023-04-17T20:23:31.232Z,90.70
2023-04-17T20:25:59.588Z,90.70
2023-04-17T20:28:28.926Z,90.60
2023-04-17T20:30:57.471Z,90.50
2023-04-17T20:33:26.193Z,90.60
2023-04-17T20:35:54.474Z,90.70
2023-04-17T20:38:22.897Z,90.80
2023-04-17T20:40:52.658Z,90.70
2023-04-17T20:43:21.047Z,90.80
2023-04-17T20:45:49.626Z,90.70
2023-04-17T20:48:18.303Z,90.60
2023-04-17T20:50:46.590Z,90.50
2023-04-17T20:53:14.923Z,90.50
2023-04-17T20:55:43.251Z,90.60
2023-04-17T20:58:12.964Z,90.60
2023-04-17T21:00:50.550Z,90.60
2023-04-17T21:03:26.636Z,90.50
2023-04-17T21:05:55.481Z,90.60
2023-04-17T21:08:23.847Z,90.20
2023-04-17T21:10:52.365Z,90.60
2023-04-17T21:13:22.673Z,90.20
2023-04-17T21:15:51.247Z,90.10
2023-04-17T21:18:19.806Z,90.30
2023-04-17T21:20:48.055Z,90.50
2023-04-17T21:23:16.526Z,90.20
2023-04-17T21:25:44.855Z,89.90
2023-04-17T21:28:13.433Z,90.10
2023-04-17T21:30:43.367Z,90.20
2023-04-17T21:33:11.690Z,90.30
2023-04-17T21:35:40.424Z,90.30
2023-04-17T21:38:08.791Z,90.40
2023-04-17T21:40:37.289Z,90.50
2023-04-17T21:43:06.064Z,90.50
2023-04-17T21:45:34.500Z,90.50
2023-04-17T21:48:04.385Z,90.60
2023-04-17T21:50:32.753Z,91.10
2023-04-17T21:53:01.099Z,90.30
2023-04-17T21:55:29.498Z,90.10
2023-04-17T21:57:57.906Z,90.10
2023-04-17T22:00:26.532Z,90.40
2023-04-17T22:02:55.085Z,90.40
2023-04-17T22:05:24.965Z,90.50
2023-04-17T22:07:55.465Z,90.50
2023-04-17T22:10:24.825Z,90.60
2023-04-17T22:12:53.144Z,90.60
2023-04-17T22:15:21.404Z,90.70
2023-04-17T22:17:49.985Z,90.70
2023-04-17T22:20:18.496Z,91.20
2023-04-17T22:22:49.443Z,90.70
2023-04-17T22:25:17.953Z,90.80
2023-04-17T22:27:46.268Z,90.60
2023-04-17T22:30:14.948Z,90.60
2023-04-17T22:32:43.478Z,90.70
2023-04-17T22:35:11.977Z,90.70
2023-04-17T22:37:40.449Z,90.60
2023-04-17T22:40:11.497Z,90.70
2023-04-17T22:42:39.886Z,90.60
2023-04-17T22:45:08.903Z,90.70
2023-04-17T22:47:37.216Z,90.70
2023-04-17T22:50:06.680Z,90.80
2023-04-17T22:52:35.077Z,90.80
2023-04-17T22:55:04.113Z,90.60
2023-04-17T22:57:33.786Z,90.70
2023-04-17T23:00:02.181Z,90.70
2023-04-17T23:02:30.714Z,90.70
2023-04-17T23:04:59.090Z,90.60
2023-04-17T23:07:27.355Z,90.60
2023-04-17T23:09:55.736Z,90.50
2023-04-17T23:12:24.101Z,90.60
2023-04-17T23:14:53.765Z,90.70
2023-04-17T23:17:22.088Z,90.50
2023-04-17T23:19:50.581Z,90.50
2023-04-17T23:22:18.933Z,90.50
2023-04-17T23:24:47.212Z,90.60
2023-04-17T23:27:15.510Z,90.50
2023-04-17T23:29:43.982Z,90.50
2023-04-17T23:32:13.588Z,90.60
2023-04-17T23:34:41.987Z,90.70
2023-04-17T23:37:10.601Z,90.60
2023-04-17T23:39:38.947Z,90.50
2023-04-17T23:42:08.090Z,90.40
2023-04-17T23:44:36.733Z,90.30
2023-04-17T23:47:05.319Z,90.40
2023-04-17T23:49:36.373Z,90.10
2023-04-17T23:52:04.898Z,90.10
2023-04-17T23:54:33.266Z,90.40
2023-04-17T23:57:02.199Z,90.50
2023-04-17T23:59:30.604Z,90.60
